Time;durP1;ratioP1;P1;durP2;ratioP2;P2;SDS_P1;SDS_P2;PMS_P1;PMS_P2;Temp;Humidity;BMP_temperature;BMP_pressure;BME280_temperature;BME280_humidity;BME280_pressure;Samples;Min_cycle;Max_cycle;Signal;HPM_P1;HPM_P2
2023/01/26 00:03:37;;;;;;;3.67;3.03;;;;;;;-2.44;nan;102287.06;9881747;29;20624;-83
2023/01/26 00:08:44;;;;;;;2.25;2.05;;;;;;;-2.47;nan;102278.19;9885424;29;20139;-84
2023/01/26 00:13:49;;;;;;;4.93;2.75;;;;;;;-2.43;nan;102278.63;9895843;29;20476;-83
2023/01/26 00:18:50;;;;;;;2.05;1.77;;;;;;;-2.44;nan;102266.56;9887721;29;20593;-85
2023/01/26 00:23:53;;;;;;;1.25;1.13;;;;;;;-2.39;nan;102275.56;9874357;29;20151;-83
2023/01/26 00:28:55;;;;;;;5.53;2.95;;;;;;;-2.37;nan;102263.81;9896889;29;20077;-84
2023/01/26 00:33:57;;;;;;;2.40;1.92;;;;;;;-2.35;nan;102261.38;9903042;29;20062;-83
2023/01/26 00:39:01;;;;;;;6.38;3.05;;;;;;;-2.40;nan;102255.81;9885438;29;20050;-83
2023/01/26 00:44:03;;;;;;;4.75;2.83;;;;;;;-2.39;nan;102260.16;9886992;29;20047;-83
2023/01/26 00:49:05;;;;;;;5.57;3.97;;;;;;;-2.35;nan;102246.88;9887105;29;20120;-85
2023/01/26 00:54:07;;;;;;;10.60;2.72;;;;;;;-2.33;nan;102235.09;9887240;29;20051;-84
2023/01/26 00:59:09;;;;;;;3.30;3.03;;;;;;;-2.34;nan;102248.69;9866252;29;20130;-84
2023/01/26 01:04:10;;;;;;;4.30;2.45;;;;;;;-2.29;nan;102232.81;9898198;29;20142;-83
2023/01/26 01:09:12;;;;;;;3.35;2.83;;;;;;;-2.29;nan;102235.38;9875586;29;20503;-83
2023/01/26 01:14:14;;;;;;;4.60;4.18;;;;;;;-2.23;nan;102228.25;9893302;29;20043;-83
2023/01/26 01:19:17;;;;;;;2.33;1.77;;;;;;;-2.23;nan;102230.81;9890120;29;20421;-83
2023/01/26 01:24:25;;;;;;;1.17;1.05;;;;;;;-2.24;nan;102227.31;9887698;29;20051;-84
2023/01/26 01:29:29;;;;;;;;;;;;;;;-2.24;nan;102227.31;9885705;29;20600;-83
2023/01/26 01:34:31;;;;;;;3.00;2.63;;;;;;;-2.19;nan;102232.88;9876187;29;19933;-83
2023/01/26 01:39:33;;;;;;;4.00;3.13;;;;;;;-2.16;nan;102228.94;9888045;29;20508;-83
2023/01/26 01:44:37;;;;;;;5.82;1.77;;;;;;;-2.17;nan;102222.00;9886054;29;20584;-83
2023/01/26 01:49:45;;;;;;;1.45;1.27;;;;;;;-2.14;nan;102226.53;9883702;29;20075;-83
2023/01/26 01:55:05;;;;;;;8.23;3.88;;;;;;;-2.11;nan;102226.78;9866304;29;20055;-84
2023/01/26 02:00:08;;;;;;;7.13;3.13;;;;;;;-2.11;nan;102221.66;9858415;29;20524;-84
2023/01/26 02:05:25;;;;;;;2.33;2.13;;;;;;;-2.08;nan;102214.25;9881075;29;20465;-84
2023/01/26 02:10:28;;;;;;;3.38;3.03;;;;;;;-2.07;nan;102215.13;9874782;29;21227;-83
2023/01/26 02:15:30;;;;;;;4.18;3.53;;;;;;;-2.08;nan;102214.25;9874873;29;20115;-83
2023/01/26 02:20:35;;;;;;;4.25;2.72;;;;;;;-2.04;nan;102208.63;9875528;29;20044;-83
2023/01/26 02:25:49;;;;;;;1.48;1.17;;;;;;;-2.02;nan;102222.50;9875149;29;20082;-85
2023/01/26 02:30:53;;;;;;;5.03;2.00;;;;;;;-1.96;nan;102212.78;9896869;29;20082;-84
2023/01/26 02:35:55;;;;;;;5.63;2.42;;;;;;;-2.01;nan;102202.84;9896584;29;20066;-83
2023/01/26 02:41:02;;;;;;;2.92;1.88;;;;;;;-2.02;nan;102198.50;9888927;29;20138;-83
2023/01/26 02:46:04;;;;;;;4.32;1.75;;;;;;;-2.02;nan;102199.38;9887648;29;20055;-84
2023/01/26 02:51:10;;;;;;;4.40;3.95;;;;;;;-1.99;nan;102196.22;9868262;29;20055;-84
2023/01/26 02:56:12;;;;;;;3.65;2.67;;;;;;;-1.93;nan;102190.72;9867288;29;20056;-83
2023/01/26 03:01:13;;;;;;;0.70;0.70;;;;;;;-1.92;nan;102189.94;9880083;29;20062;-83
2023/01/26 03:06:20;;;;;;;8.00;1.60;;;;;;;-1.93;nan;102188.16;9882558;29;20059;-83
2023/01/26 03:11:22;;;;;;;2.58;1.40;;;;;;;-1.86;nan;102187.94;9892760;29;20081;-83
2023/01/26 03:16:23;;;;;;;3.20;2.75;;;;;;;-1.87;nan;102175.88;9891558;29;20055;-83
2023/01/26 03:32:07;;;;;;;6.30;2.88;;;;;;;-1.85;nan;102180.34;9886781;29;20059;-85
2023/01/26 03:37:10;;;;;;;0.82;0.82;;;;;;;-1.81;nan;102177.31;9880635;29;20572;-84
2023/01/26 03:58:20;;;;;;;4.90;2.25;;;;;;;-1.81;nan;102164.47;9900486;29;20055;-83
2023/01/26 04:08:45;;;;;;;6.47;2.95;;;;;;;-1.75;nan;102152.97;9885347;29;20043;-84
2023/01/26 04:24:28;;;;;;;2.63;2.10;;;;;;;-1.73;nan;102149.72;9875024;29;20428;-83
2023/01/26 04:29:31;;;;;;;1.77;1.40;;;;;;;-1.73;nan;102147.16;9885314;29;20128;-84
2023/01/26 04:34:33;;;;;;;2.28;2.05;;;;;;;-1.69;nan;102141.53;9893724;29;20048;-84
2023/01/26 04:39:39;;;;;;;2.03;1.88;;;;;;;-1.67;nan;102140.00;9887101;29;20517;-84
2023/01/26 04:44:41;;;;;;;8.32;2.63;;;;;;;-1.65;nan;102142.69;9884558;29;20061;-83
2023/01/26 04:49:44;;;;;;;5.13;2.42;;;;;;;-1.61;nan;102135.44;9877236;29;20107;-83
2023/01/26 04:54:47;;;;;;;2.17;1.85;;;;;;;-1.62;nan;102143.88;9881711;29;20598;-84
2023/01/26 04:59:49;;;;;;;5.13;2.40;;;;;;;-1.56;nan;102128.13;9896452;29;20046;-84
2023/01/26 05:04:53;;;;;;;6.30;3.15;;;;;;;-1.51;nan;102131.09;9910546;29;20062;-84
2023/01/26 05:09:55;;;;;;;3.50;3.03;;;;;;;-1.48;nan;102121.06;9903295;29;20058;-84
2023/01/26 05:15:15;;;;;;;5.53;2.97;;;;;;;-1.45;nan;102121.34;9894316;29;20536;-84
2023/01/26 05:20:35;;;;;;;1.07;1.00;;;;;;;-1.43;nan;102112.09;9883356;29;20051;-85
2023/01/26 05:25:59;;;;;;;4.82;2.60;;;;;;;-1.45;nan;102111.97;9879548;29;20476;-84
2023/01/26 05:31:02;;;;;;;1.05;0.95;;;;;;;-1.42;nan;102116.47;9903473;29;20450;-84
2023/01/26 05:36:06;;;;;;;0.75;0.70;;;;;;;-1.41;nan;102115.72;9878012;29;20132;-84
2023/01/26 05:41:08;;;;;;;2.55;1.77;;;;;;;-1.41;nan;102120.84;9892835;29;20044;-85
2023/01/26 05:46:24;;;;;;;1.17;1.00;;;;;;;-1.40;nan;102129.44;9868144;29;20556;-84
2023/01/26 05:51:26;;;;;;;3.88;2.38;;;;;;;-1.43;nan;102128.44;9889050;29;20059;-85
2023/01/26 05:56:28;;;;;;;1.73;1.60;;;;;;;-1.37;nan;102124.56;9917786;29;20142;-84
2023/01/26 06:01:34;;;;;;;3.22;1.95;;;;;;;-1.38;nan;102118.53;9897620;29;20055;-86
2023/01/26 06:06:39;;;;;;;2.13;1.70;;;;;;;-1.36;nan;102127.28;9912503;29;20058;-84
2023/01/26 06:12:05;;;;;;;2.53;1.73;;;;;;;-1.33;nan;102126.66;9909537;29;20047;-83
2023/01/26 06:17:31;;;;;;;1.35;1.02;;;;;;;-1.38;nan;102136.53;9894916;29;20062;-82
2023/01/26 06:22:36;;;;;;;0.85;0.85;;;;;;;-1.38;nan;102128.81;9905223;29;20063;-84
2023/01/26 06:27:40;;;;;;;1.60;1.45;;;;;;;-1.35;nan;102134.22;9886594;29;20078;-84
2023/01/26 06:32:49;;;;;;;1.90;1.55;;;;;;;-1.34;nan;102141.16;9886062;29;20052;-83
2023/01/26 06:37:52;;;;;;;2.42;1.65;;;;;;;-1.27;nan;102148.63;9886074;29;20421;-83
2023/01/26 06:42:54;;;;;;;3.40;1.92;;;;;;;-1.24;nan;102155.72;9900482;29;20540;-83
2023/01/26 06:47:56;;;;;;;0.63;0.63;;;;;;;-1.22;nan;102156.72;9913473;29;20055;-84
2023/01/26 06:53:01;;;;;;;2.20;1.55;;;;;;;-1.21;nan;102158.53;9901720;29;20058;-83
2023/01/26 06:58:10;;;;;;;0.40;0.40;;;;;;;-1.17;nan;102159.69;9900548;29;20056;-83
2023/01/26 07:03:32;;;;;;;0.93;0.85;;;;;;;-1.14;nan;102165.09;9891526;29;20050;-83
2023/01/26 07:08:33;;;;;;;0.82;0.82;;;;;;;-1.13;nan;102166.91;9889693;29;20059;-83
2023/01/26 07:13:35;;;;;;;1.42;1.33;;;;;;;-1.10;nan;102157.78;9902444;29;20051;-83
2023/01/26 07:18:37;;;;;;;0.90;0.90;;;;;;;-1.08;nan;102152.81;9900891;29;20052;-84
2023/01/26 07:23:39;;;;;;;1.83;1.33;;;;;;;-1.02;nan;102162.69;9885301;29;20089;-83
2023/01/26 07:28:41;;;;;;;1.05;1.00;;;;;;;-1.03;nan;102172.09;9883091;29;20059;-84
2023/01/26 07:33:42;;;;;;;5.03;0.77;;;;;;;-0.99;nan;102165.53;9881793;29;20066;-84
2023/01/26 07:38:44;;;;;;;0.28;0.28;;;;;;;-0.96;nan;102176.06;9882406;29;20062;-84
2023/01/26 07:43:48;;;;;;;5.10;2.38;;;;;;;-0.94;nan;102180.59;9881005;29;20556;-84
2023/01/26 07:48:51;;;;;;;3.53;1.65;;;;;;;-0.93;nan;102181.47;9883805;29;20066;-85
2023/01/26 07:53:53;;;;;;;1.05;0.95;;;;;;;-0.92;nan;102163.59;9886357;29;20058;-86
2023/01/26 07:58:57;;;;;;;1.55;1.17;;;;;;;-0.90;nan;102176.63;9882703;29;20100;-86
2023/01/26 08:03:59;;;;;;;1.23;0.93;;;;;;;-0.92;nan;102167.84;9882493;29;20056;-86
2023/01/26 08:09:02;;;;;;;0.30;0.30;;;;;;;-0.90;nan;102172.38;9879832;29;20140;-85
2023/01/26 08:14:04;;;;;;;2.38;1.95;;;;;;;-0.88;nan;102175.06;9881355;29;20052;-85
2023/01/26 08:19:05;;;;;;;1.55;0.73;;;;;;;-0.83;nan;102183.19;9881094;29;20054;-84
2023/01/26 08:24:07;;;;;;;0.47;0.47;;;;;;;-0.79;nan;102180.09;9893948;29;20094;-83
2023/01/26 08:29:09;;;;;;;0.77;0.57;;;;;;;-0.76;nan;102180.38;9896342;29;20051;-84
2023/01/26 08:34:11;;;;;;;0.20;0.20;;;;;;;-0.72;nan;102180.75;9890586;29;20052;-84
2023/01/26 08:39:12;;;;;;;1.10;1.00;;;;;;;-0.72;nan;102190.16;9902314;29;20051;-84
2023/01/26 08:44:14;;;;;;;0.98;0.98;;;;;;;-0.67;nan;102194.00;9874631;29;20120;-83
2023/01/26 08:49:15;;;;;;;1.17;0.98;;;;;;;-0.58;nan;102189.63;9884200;29;20058;-82
2023/01/26 08:54:17;;;;;;;0.88;0.88;;;;;;;-0.55;nan;102189.88;9898550;29;20054;-81
2023/01/26 08:59:19;;;;;;;1.30;1.13;;;;;;;-0.53;nan;102200.31;9908609;29;20501;-82
2023/01/26 09:04:20;;;;;;;0.60;0.60;;;;;;;-0.47;nan;102202.50;9877244;29;20736;-82
2023/01/26 09:09:22;;;;;;;0.70;0.70;;;;;;;-0.40;nan;102204.81;9904172;29;20049;-81
2023/01/26 09:14:24;;;;;;;1.95;0.93;;;;;;;-0.36;nan;102205.22;9896096;29;20521;-82
2023/01/26 09:19:25;;;;;;;0.40;0.40;;;;;;;-0.32;nan;102210.63;9884275;29;20120;-83
2023/01/26 09:24:28;;;;;;;2.83;1.08;;;;;;;-0.26;nan;102214.59;9873468;29;20077;-83
2023/01/26 09:29:31;;;;;;;0.95;0.95;;;;;;;-0.21;nan;102212.41;9892385;29;20060;-80
2023/01/26 09:34:32;;;;;;;0.70;0.70;;;;;;;-0.09;nan;102209.94;9883008;29;20055;-81
2023/01/26 09:39:34;;;;;;;2.28;1.17;;;;;;;0.04;nan;102199.88;9876200;29;20051;-84
2023/01/26 09:44:48;;;;;;;1.00;0.95;;;;;;;0.22;nan;102192.75;9862530;29;20079;-82
2023/01/26 09:50:03;;;;;;;0.47;0.47;;;;;;;0.32;nan;102186.69;9844358;29;20048;-84
2023/01/26 09:55:13;;;;;;;1.52;0.93;;;;;;;0.42;nan;102198.63;9876799;29;20040;-83
2023/01/26 10:00:47;;;;;;;3.13;1.98;;;;;;;0.47;nan;102190.50;9880375;29;20054;-81
2023/01/26 10:05:49;;;;;;;6.53;1.85;;;;;;;0.62;nan;102200.25;9884195;29;20055;-81
2023/01/26 10:11:35;;;;;;;2.95;1.80;;;;;;;0.80;nan;102206.84;9859855;29;20055;-80
2023/01/26 10:16:37;;;;;;;1.73;1.30;;;;;;;1.00;nan;102194.63;9875969;29;20087;-81
2023/01/26 10:21:45;;;;;;;1.80;1.20;;;;;;;1.19;nan;102190.13;9898845;29;20050;-81
2023/01/26 10:26:46;;;;;;;4.68;1.55;;;;;;;1.41;nan;102182.38;9878932;29;20238;-83
2023/01/26 10:31:48;;;;;;;1.42;0.90;;;;;;;1.62;nan;102183.88;9902637;29;20052;-82
2023/01/26 10:43:27;;;;;;;2.30;1.23;;;;;;;2.00;nan;102183.25;9891681;29;20059;-82
2023/01/26 10:50:01;;;;;;;2.25;1.42;;;;;;;2.25;nan;102181.72;9893370;29;20059;-81
2023/01/26 10:55:21;;;;;;;0.82;0.80;;;;;;;2.43;nan;102191.56;9847207;29;20144;-82
2023/01/26 11:00:30;;;;;;;3.67;0.98;;;;;;;2.44;nan;102188.22;9879642;29;20051;-82
2023/01/26 11:05:32;;;;;;;2.77;1.27;;;;;;;2.48;nan;102182.47;9880364;29;20808;-84
2023/01/26 11:10:49;;;;;;;4.68;1.83;;;;;;;2.55;nan;102191.56;9890582;29;20060;-83
2023/01/26 11:16:20;;;;;;;11.02;2.58;;;;;;;2.83;nan;102186.69;9876857;29;20063;-83
2023/01/26 11:21:31;;;;;;;;;;;;;;;3.18;nan;102184.00;9880059;29;20054;-81
2023/01/26 11:27:03;;;;;;;1.15;0.90;;;;;;;3.54;nan;102170.84;9872575;29;19961;-83
2023/01/26 11:32:22;;;;;;;1.77;0.85;;;;;;;3.78;nan;102166.41;9881437;29;20054;-83
2023/01/26 11:38:01;;;;;;;;;;;;;;;4.03;nan;102158.56;9892682;29;20050;-84
2023/01/26 11:43:48;;;;;;;2.45;1.52;;;;;;;4.29;nan;102153.31;9887283;29;19937;-82
2023/01/26 11:49:25;;;;;;;1.08;0.77;;;;;;;4.39;nan;102145.31;9885199;29;20517;-86
2023/01/26 11:54:57;;;;;;;2.63;0.80;;;;;;;4.73;nan;102143.16;9860585;29;20063;-84
2023/01/26 12:00:44;;;;;;;3.00;1.27;;;;;;;4.86;nan;102141.31;9892089;29;20421;-84
2023/01/26 12:50:35;;;;;;;2.10;0.75;;;;;;;6.09;nan;102090.56;10863228;24;20128;-85
2023/01/26 12:56:28;;;;;;;0.30;0.30;;;;;;;5.91;nan;102092.97;9865769;29;20082;-86
2023/01/26 13:01:39;;;;;;;0.10;0.10;;;;;;;5.80;nan;102088.06;9861597;29;20581;-87
2023/01/26 13:07:54;;;;;;;1.27;0.30;;;;;;;5.71;nan;102087.53;9779593;30;20068;-86
2023/01/26 13:13:20;;;;;;;1.67;0.73;;;;;;;5.68;nan;102078.66;9801381;29;20534;-86
2023/01/26 13:18:56;;;;;;;1.63;0.70;;;;;;;5.63;nan;102070.59;9864416;29;20086;-87
2023/01/26 13:24:16;;;;;;;2.05;0.75;;;;;;;5.59;nan;102073.84;9882026;29;20187;-87
2023/01/26 13:29:57;;;;;;;1.23;0.60;;;;;;;5.48;nan;102091.41;9863016;29;20055;-88
2023/01/26 13:35:13;;;;;;;1.58;0.75;;;;;;;5.43;nan;102085.91;9845852;29;20108;-86
2023/01/26 13:40:37;;;;;;;0.95;0.70;;;;;;;5.41;nan;102073.66;9872129;29;20055;-89
2023/01/26 13:47:28;;;;;;;4.45;0.75;;;;;;;5.43;nan;102085.91;9858539;29;20136;-88
2023/01/26 13:53:37;;;;;;;0.47;0.47;;;;;;;5.51;nan;102082.88;9907176;29;20054;-87
2023/01/26 13:59:09;;;;;;;0.67;0.23;;;;;;;5.49;nan;102093.16;9913160;29;20157;-88
2023/01/26 14:52:04;;;;;;;0.45;0.32;;;;;;;5.40;nan;102085.72;9779190;30;21839;-85
2023/01/26 14:57:06;;;;;;;0.90;0.70;;;;;;;5.37;nan;102080.34;9735704;30;20150;-86
2023/01/26 15:02:18;;;;;;;0.93;0.20;;;;;;;5.32;nan;102085.28;9734751;30;20452;-84
2023/01/26 15:07:44;;;;;;;3.92;0.90;;;;;;;5.29;nan;102079.91;9866172;29;20055;-83
2023/01/26 15:12:54;;;;;;;1.67;0.65;;;;;;;5.28;nan;102082.41;9882300;29;20048;-85
2023/01/26 15:18:28;;;;;;;0.40;0.40;;;;;;;5.25;nan;102090.03;9869116;29;20052;-82
2023/01/26 15:23:44;;;;;;;3.75;2.08;;;;;;;5.13;nan;102088.50;9861408;29;20047;-85
2023/01/26 15:28:51;;;;;;;1.70;0.43;;;;;;;5.04;nan;102087.91;9861744;29;20725;-85
2023/01/26 15:40:00;;;;;;;0.47;0.38;;;;;;;4.92;nan;102102.75;9881541;29;20043;-87
2023/01/26 15:52:29;;;;;;;1.55;0.43;;;;;;;4.66;nan;102119.34;9839270;29;20362;-86
2023/01/26 15:58:18;;;;;;;2.00;0.70;;;;;;;4.62;nan;102122.53;9834306;29;20060;-88
2023/01/26 16:04:09;;;;;;;1.10;0.68;;;;;;;4.50;nan;102133.03;9871750;29;20147;-88
2023/01/26 16:09:14;;;;;;;1.77;0.93;;;;;;;4.42;nan;102138.63;9852698;29;20668;-87
2023/01/26 16:14:19;;;;;;;0.60;0.45;;;;;;;4.38;nan;102136.66;9842474;29;20480;-87
2023/01/26 16:19:21;;;;;;;0.13;0.13;;;;;;;4.36;nan;102140.81;9818177;29;20719;-84
2023/01/26 16:24:36;;;;;;;0.10;0.10;;;;;;;4.33;nan;102145.81;9840056;29;20074;-86
2023/01/26 16:29:37;;;;;;;0.35;0.35;;;;;;;4.29;nan;102138.63;9835292;29;20510;-84
2023/01/26 16:34:39;;;;;;;0.60;0.38;;;;;;;4.20;nan;102148.41;9851207;29;20052;-85
2023/01/26 16:39:41;;;;;;;0.88;0.50;;;;;;;4.19;nan;102154.41;9849814;29;20101;-84
2023/01/26 16:44:47;;;;;;;3.03;1.13;;;;;;;4.11;nan;102158.19;9830812;29;20418;-87
2023/01/26 16:49:55;;;;;;;3.00;0.68;;;;;;;4.06;nan;102151.00;9847512;29;20146;-84
2023/01/26 16:54:57;;;;;;;0.30;0.30;;;;;;;4.02;nan;102151.63;9859412;29;20429;-84
2023/01/26 16:59:59;;;;;;;1.60;1.00;;;;;;;4.01;nan;102147.22;9852392;29;20094;-84
2023/01/26 17:05:01;;;;;;;3.97;1.70;;;;;;;3.99;nan;102158.28;9846253;29;20048;-85
2023/01/26 17:10:03;;;;;;;3.75;0.80;;;;;;;3.97;nan;102154.69;9847414;29;20059;-86
2023/01/26 17:15:07;;;;;;;0.63;0.57;;;;;;;3.92;nan;102154.41;9828438;30;20138;-86
2023/01/26 17:20:11;;;;;;;0.50;0.50;;;;;;;3.94;nan;102149.31;9860783;29;20183;-85
2023/01/26 17:25:20;;;;;;;0.30;0.25;;;;;;;3.89;nan;102152.50;9837420;30;20505;-86
2023/01/26 17:30:22;;;;;;;1.15;0.52;;;;;;;3.88;nan;102162.75;9840062;30;20059;-84
2023/01/26 17:35:24;;;;;;;1.73;1.08;;;;;;;3.84;nan;102166.84;9846444;29;20078;-85
2023/01/26 17:40:25;;;;;;;0.40;0.40;;;;;;;3.84;nan;102164.25;9859119;29;20142;-85
2023/01/26 17:45:27;;;;;;;2.25;1.10;;;;;;;3.87;nan;102164.47;9837053;30;20044;-85
2023/01/26 17:50:29;;;;;;;1.02;0.73;;;;;;;3.87;nan;102174.84;9843251;30;20325;-85
2023/01/26 17:55:31;;;;;;;0.13;0.13;;;;;;;3.85;nan;102172.91;9834322;30;20052;-84
2023/01/26 18:00:33;;;;;;;0.65;0.30;;;;;;;3.82;nan;102167.53;9840024;30;20048;-85
2023/01/26 18:05:36;;;;;;;0.10;0.10;;;;;;;3.79;nan;102172.53;9834805;30;20109;-85
2023/01/26 18:10:38;;;;;;;1.40;0.30;;;;;;;3.72;nan;102176.38;9845386;30;20445;-85
2023/01/26 18:15:42;;;;;;;2.08;0.40;;;;;;;3.68;nan;102172.69;9837763;30;20109;-85
2023/01/26 18:20:44;;;;;;;0.47;0.47;;;;;;;3.66;nan;102183.72;9845933;29;20091;-86
2023/01/26 18:25:48;;;;;;;1.15;0.55;;;;;;;3.62;nan;102198.19;9858158;29;20372;-87
2023/01/26 18:30:51;;;;;;;1.30;1.05;;;;;;;3.61;nan;102201.56;9837011;30;20438;-85
2023/01/26 18:36:01;;;;;;;1.85;1.05;;;;;;;3.56;nan;102213.31;9848533;30;20263;-84
2023/01/26 18:41:03;;;;;;;0.45;0.43;;;;;;;3.49;nan;102211.09;9857975;29;20074;-84
2023/01/26 18:46:05;;;;;;;1.50;1.00;;;;;;;3.40;nan;102216.53;9839255;30;20097;-84
2023/01/26 18:51:12;;;;;;;2.13;1.40;;;;;;;3.36;nan;102225.78;9852949;29;20056;-85
2023/01/26 18:56:15;;;;;;;5.25;1.15;;;;;;;3.38;nan;102232.75;9857399;30;20060;-84
2023/01/26 19:01:19;;;;;;;1.48;0.52;;;;;;;3.38;nan;102232.75;9856322;30;20062;-82
2023/01/26 19:06:24;;;;;;;0.32;0.30;;;;;;;3.35;nan;102239.53;9841495;30;20070;-83
2023/01/26 19:11:28;;;;;;;2.85;1.38;;;;;;;3.36;nan;102238.75;9857180;30;20062;-84
2023/01/26 19:16:31;;;;;;;2.00;1.15;;;;;;;3.26;nan;102246.66;9856126;30;20060;-83
2023/01/26 19:21:32;;;;;;;1.25;0.75;;;;;;;3.24;nan;102243.03;9843801;30;20307;-83
2023/01/26 19:26:34;;;;;;;0.55;0.50;;;;;;;3.21;nan;102242.81;9852958;30;20064;-82
2023/01/26 19:31:36;;;;;;;3.67;2.90;;;;;;;3.24;nan;102243.03;9853439;30;20071;-83
2023/01/26 19:36:38;;;;;;;3.17;1.98;;;;;;;3.28;nan;102250.22;9854131;30;20756;-82
2023/01/26 19:41:40;;;;;;;4.60;1.77;;;;;;;3.26;nan;102250.91;9835735;30;20113;-84
2023/01/26 19:46:42;;;;;;;2.20;1.40;;;;;;;3.22;nan;102252.41;9865035;30;20055;-83
2023/01/26 19:51:44;;;;;;;1.33;1.17;;;;;;;3.20;nan;102259.16;9835663;30;20048;-83
2023/01/26 19:56:45;;;;;;;1.13;0.73;;;;;;;3.18;nan;102261.66;9867741;30;20082;-84
2023/01/26 20:01:47;;;;;;;4.05;1.75;;;;;;;3.19;nan;102263.41;9853375;29;20064;-84
2023/01/26 20:06:49;;;;;;;2.55;1.67;;;;;;;3.18;nan;102260.72;9850800;30;20618;-85
2023/01/26 20:11:51;;;;;;;0.82;0.77;;;;;;;3.15;nan;102270.88;9869357;29;20062;-85
2023/01/26 20:16:53;;;;;;;0.63;0.63;;;;;;;2.98;nan;102272.25;9838715;30;20060;-83
2023/01/26 20:21:54;;;;;;;1.65;1.08;;;;;;;2.83;nan;102287.56;9841328;30;20062;-77
2023/01/26 20:26:56;;;;;;;1.55;1.13;;;;;;;2.77;nan;102287.13;9858568;30;20055;-79
2023/01/26 20:31:58;;;;;;;2.83;1.52;;;;;;;2.72;nan;102289.41;9858662;29;20060;-78
2023/01/26 20:36:59;;;;;;;0.63;0.63;;;;;;;2.71;nan;102287.59;9867451;30;20589;-79
2023/01/26 20:42:01;;;;;;;1.50;0.98;;;;;;;2.72;nan;102288.47;9866058;30;20183;-79
2023/01/26 20:47:03;;;;;;;1.48;0.98;;;;;;;2.74;nan;102294.69;9844430;30;20433;-79
2023/01/26 20:52:06;;;;;;;2.20;1.27;;;;;;;2.76;nan;102308.59;9850792;30;20052;-80
2023/01/26 20:57:08;;;;;;;1.27;0.85;;;;;;;2.76;nan;102308.59;9871788;30;20055;-81
2023/01/26 21:02:14;;;;;;;7.18;1.63;;;;;;;2.80;nan;102308.06;9842732;30;20060;-81
2023/01/26 21:07:16;;;;;;;0.95;0.90;;;;;;;2.83;nan;102303.09;9862349;30;20055;-79
2023/01/26 21:12:18;;;;;;;2.17;0.82;;;;;;;2.85;nan;102301.50;9867547;30;20055;-80
2023/01/26 21:17:21;;;;;;;2.05;1.38;;;;;;;2.85;nan;102317.03;9847991;30;20052;-79
2023/01/26 21:22:23;;;;;;;2.60;1.35;;;;;;;2.86;nan;102318.84;9859043;30;20052;-80
2023/01/26 21:27:25;;;;;;;2.60;1.25;;;;;;;2.85;nan;102324.78;9873702;29;20052;-79
2023/01/26 21:32:26;;;;;;;2.38;1.38;;;;;;;2.85;nan;102321.31;9851651;30;20051;-80
2023/01/26 21:37:28;;;;;;;0.65;0.52;;;;;;;2.83;nan;102323.81;9839594;30;20490;-80
2023/01/26 21:42:29;;;;;;;9.63;1.00;;;;;;;2.82;nan;102325.50;9858147;30;20506;-80
2023/01/26 21:47:31;;;;;;;1.73;1.10;;;;;;;2.82;nan;102322.91;9851568;30;20597;-78
2023/01/26 22:03:13;;;;;;;1.75;1.13;;;;;;;2.81;nan;102326.28;9854194;29;20052;-79
2023/01/26 22:08:14;;;;;;;4.55;1.40;;;;;;;2.80;nan;102319.28;9859585;29;20055;-79
2023/01/26 22:13:16;;;;;;;2.35;1.27;;;;;;;2.82;nan;102332.34;9859809;29;20056;-79
2023/01/26 22:18:18;;;;;;;4.78;1.73;;;;;;;2.80;nan;102329.63;9857784;29;20083;-80
2023/01/26 22:23:19;;;;;;;1.05;0.65;;;;;;;2.79;nan;102333.03;9842490;29;20154;-81
2023/01/26 22:28:21;;;;;;;0.65;0.57;;;;;;;2.79;nan;102332.13;9841336;29;20059;-80
2023/01/26 22:33:23;;;;;;;1.90;0.85;;;;;;;2.79;nan;102332.13;9842598;29;20052;-79
2023/01/26 22:38:24;;;;;;;0.55;0.55;;;;;;;2.78;nan;102330.34;9862843;29;20048;-80
2023/01/26 22:43:26;;;;;;;3.03;1.67;;;;;;;2.79;nan;102332.13;9854242;29;20127;-80
2023/01/26 22:48:29;;;;;;;2.92;2.10;;;;;;;2.77;nan;102329.41;9843056;29;20064;-80
2023/01/26 22:53:31;;;;;;;5.07;2.40;;;;;;;2.79;nan;102334.69;9845978;29;20659;-78
2023/01/26 22:58:35;;;;;;;1.30;0.88;;;;;;;2.79;nan;102329.53;9851447;29;20093;-80
2023/01/26 23:03:54;;;;;;;1.98;1.60;;;;;;;2.77;nan;102337.19;9836460;29;20052;-79
2023/01/26 23:08:57;;;;;;;0.95;0.85;;;;;;;2.78;nan;102335.50;9841361;29;20803;-80
2023/01/26 23:13:59;;;;;;;2.30;1.23;;;;;;;2.80;nan;102332.22;9861974;29;20070;-80
2023/01/26 23:19:01;;;;;;;2.47;1.33;;;;;;;2.85;nan;102337.72;9842373;29;20064;-80
2023/01/26 23:24:02;;;;;;;1.75;1.05;;;;;;;2.85;nan;102337.72;9847392;29;20072;-79
2023/01/26 23:29:04;;;;;;;2.78;1.35;;;;;;;2.88;nan;102345.72;9852132;29;20139;-81
2023/01/26 23:34:06;;;;;;;0.98;0.90;;;;;;;2.91;nan;102345.06;9855429;29;20631;-80
2023/01/26 23:39:07;;;;;;;0.73;0.70;;;;;;;2.93;nan;102346.09;9853605;29;20062;-79
2023/01/26 23:44:10;;;;;;;1.33;0.80;;;;;;;2.97;nan;102353.25;9869380;29;20053;-78
2023/01/26 23:49:12;;;;;;;1.08;0.98;;;;;;;2.98;nan;102353.38;9858479;29;20475;-78
2023/01/26 23:54:13;;;;;;;6.18;1.27;;;;;;;3.00;nan;102353.47;9854530;29;20048;-79
2023/01/26 23:59:15;;;;;;;1.73;0.95;;;;;;;2.98;nan;102350.78;9873686;29;20055;-79
